Startpagina
METAR-TAF:

METAR-TAF

Vliegvelden :

Port of Spain, Trinidad, Trinidad en Tobago

breedte: 10-37N, lengte: 061-21W, hoogte: 12 m

Actueel weer

Dit bericht is 31 minuten geleden gemaakt, om 03:00 UTC
Weinig wind
Temperatuur 25°C
Vochtigheid 89%
Druk 1013 hPa
Zicht 10 km of meer
Weinig wolken op 1600 ft

METAR: TTPP 230300Z 00000KT 9999 FEW016 25/23 Q1013 NOSIG

Tijdstip: 23:31 (03:31 UTC)

Verwachting

Dit bericht is 5 uur en het 31 minuten geleden gemaakt, om 22:00 UTC
Verwachting geldig van 23 om 00 UTC tot 23 om 24 UTC
Wind kt uit het noorden
Weinig wolken op 1600 ft
Wijzigt naar
van 23 om 12 UTC tot 23 om 14 UTC
Wind 12 kt uit het oosten
Kans 30% :
Tijdelijke
van 23 om 14 UTC tot 23 om 18 UTC
Zicht: 7000 m
Verspreide wolken op 1600 ft
regenbuien

TAF: TTPP 222200Z 2300/2324 00000KT FEW016 BECMG 2312/2314 10012KT PROB30 TEMPO 2314/2318 7000 SHRA SCT016

Waarnemingen en weersverwachtingen van meer dan 4000 vliegvelden (METAR en TAF).

De beschikbare stations zijn de gele en rode punten op de kaart.

Ga met uw muis naar het station om de naam te zien.

Klik dan om waarnemingen en weersverwachtingen te zien.

kaart wijzigen: klik op de groene knoppen met een zwart kruis om in te zoomen, op de groene knop met een streepje om uit te zoomen of op de groene pijlen voor aangrenzende kaarten.


METAR-TAF: